Time;durP1;ratioP1;P1;durP2;ratioP2;P2;SDS_P1;SDS_P2;PMS_P1;PMS_P2;Temp;Humidity;BMP_temperature;BMP_pressure;BME280_temperature;BME280_humidity;BME280_pressure;Samples;Min_cycle;Max_cycle;Signal;HPM_P1;HPM_P2
2023/03/06 00:00:11;;;;;;;5.87;1.40;;;;;;;-145.18;100.00;60484.78;5053411;28;20024;-83
2023/03/06 00:02:36;;;;;;;6.13;1.77;;;;;;;-145.18;100.00;60484.78;5052723;28;20044;-83
2023/03/06 00:05:01;;;;;;;7.63;2.10;;;;;;;-145.18;100.00;60484.78;5052860;28;20021;-83
2023/03/06 00:07:27;;;;;;;5.10;1.50;;;;;;;-145.18;100.00;60484.78;5052775;28;20055;-83
2023/03/06 00:09:52;;;;;;;6.77;1.90;;;;;;;-145.18;100.00;60484.78;5047414;28;20044;-83
2023/03/06 00:12:17;;;;;;;6.83;1.73;;;;;;;-145.18;100.00;60484.78;5046625;28;20082;-83
2023/03/06 00:14:43;;;;;;;6.93;1.80;;;;;;;-145.18;100.00;60484.78;5052069;28;20029;-84
2023/03/06 00:17:08;;;;;;;5.90;2.50;;;;;;;-145.18;100.00;60484.78;5050524;28;20376;-83
2023/03/06 00:19:33;;;;;;;9.30;1.90;;;;;;;-145.18;100.00;60484.78;5052277;28;20096;-83
2023/03/06 00:21:59;;;;;;;7.07;1.83;;;;;;;-145.18;100.00;60484.78;5049624;28;20359;-83
2023/03/06 00:24:24;;;;;;;5.80;1.60;;;;;;;-145.18;100.00;60484.78;5021195;28;20028;-83
2023/03/06 00:26:50;;;;;;;5.93;1.60;;;;;;;-145.18;100.00;60484.78;5041633;28;20033;-83
2023/03/06 00:29:15;;;;;;;6.40;1.50;;;;;;;-145.18;100.00;60484.78;5046404;28;20384;-83
2023/03/06 00:31:45;;;;;;;6.43;1.90;;;;;;;-145.18;100.00;60484.78;5030420;28;20036;-83
2023/03/06 00:34:10;;;;;;;8.73;2.00;;;;;;;-145.18;100.00;60484.78;5047537;28;20104;-83
2023/03/06 00:36:36;;;;;;;7.60;1.70;;;;;;;-145.18;100.00;60484.78;5047538;28;20109;-83
2023/03/06 00:39:01;;;;;;;8.50;1.90;;;;;;;-145.18;100.00;60484.78;5049175;28;20028;-83
2023/03/06 00:41:26;;;;;;;10.10;1.97;;;;;;;-145.18;100.00;60484.78;5043498;28;20480;-83
2023/03/06 00:43:52;;;;;;;8.47;1.93;;;;;;;-145.18;100.00;60484.78;5037382;28;20068;-83
2023/03/06 00:46:17;;;;;;;6.50;1.73;;;;;;;-145.18;100.00;60484.78;5049078;28;20519;-84
2023/03/06 00:48:42;;;;;;;8.10;1.80;;;;;;;-145.18;100.00;60484.78;5052967;28;20017;-83
2023/03/06 00:51:08;;;;;;;7.30;2.00;;;;;;;-145.18;100.00;60484.78;5049480;28;20422;-83
2023/03/06 00:53:33;;;;;;;8.67;2.07;;;;;;;-145.18;100.00;60484.78;5048406;28;20070;-83
2023/03/06 00:55:59;;;;;;;10.00;2.00;;;;;;;-145.18;100.00;60484.78;5036104;28;20036;-83
2023/03/06 00:58:24;;;;;;;4.97;1.70;;;;;;;-145.18;100.00;60484.78;5039938;28;20029;-84
2023/03/06 01:00:49;;;;;;;10.77;2.40;;;;;;;-145.18;100.00;60484.78;5047186;28;20028;-83
2023/03/06 01:03:18;;;;;;;10.27;1.97;;;;;;;-145.18;100.00;60484.78;5051474;28;20064;-84
2023/03/06 01:05:43;;;;;;;6.90;2.10;;;;;;;-145.18;100.00;60484.78;5048718;28;20537;-83
2023/03/06 01:08:09;;;;;;;9.40;1.90;;;;;;;-145.18;100.00;60484.78;5053154;28;20068;-83
2023/03/06 01:10:38;;;;;;;7.73;2.00;;;;;;;-145.18;100.00;60484.78;5050630;28;20043;-83
2023/03/06 01:13:04;;;;;;;9.47;2.00;;;;;;;-145.18;100.00;60484.78;5046474;28;20492;-84
2023/03/06 01:15:29;;;;;;;7.00;2.40;;;;;;;-145.18;100.00;60484.78;5050989;28;20029;-83
2023/03/06 01:17:54;;;;;;;9.07;2.20;;;;;;;-145.18;100.00;60484.78;5051231;28;20033;-84
2023/03/06 01:20:21;;;;;;;6.57;2.07;;;;;;;-145.18;100.00;60484.78;5051274;28;20075;-84
2023/03/06 01:22:46;;;;;;;6.73;2.00;;;;;;;-145.18;100.00;60484.78;5043944;28;20396;-83
2023/03/06 01:25:12;;;;;;;9.30;2.73;;;;;;;-145.18;100.00;60484.78;5051657;28;20292;-83
2023/03/06 01:27:37;;;;;;;5.60;1.90;;;;;;;-145.18;100.00;60484.78;5047468;28;20032;-84
2023/03/06 01:30:04;;;;;;;5.60;1.93;;;;;;;-145.18;100.00;60484.78;5039345;28;20096;-84
2023/03/06 01:32:30;;;;;;;6.27;1.90;;;;;;;-145.18;100.00;60484.78;5051745;28;20473;-83
2023/03/06 01:34:56;;;;;;;7.73;1.83;;;;;;;-145.18;100.00;60484.78;5050456;28;20029;-83
2023/03/06 01:37:21;;;;;;;4.73;2.00;;;;;;;-145.18;100.00;60484.78;5048170;28;20029;-84
2023/03/06 01:39:46;;;;;;;11.33;2.67;;;;;;;-145.18;100.00;60484.78;5051880;28;20025;-83
2023/03/06 01:42:12;;;;;;;7.77;1.90;;;;;;;-145.18;100.00;60484.78;5048687;28;20031;-83
2023/03/06 01:45:16;;;;;;;5.17;1.77;;;;;;;-145.18;100.00;60484.78;5041458;28;20024;-83
2023/03/06 01:47:43;;;;;;;8.40;1.97;;;;;;;-145.18;100.00;60484.78;5001435;28;20033;-83
2023/03/06 01:50:11;;;;;;;8.60;2.33;;;;;;;-145.18;100.00;60484.78;5041763;28;20512;-83
2023/03/06 01:52:47;;;;;;;7.33;1.83;;;;;;;-145.18;100.00;60484.78;5032138;28;20580;-83
2023/03/06 01:55:31;;;;;;;8.27;2.70;;;;;;;-145.18;100.00;60484.78;5045249;28;20545;-83
2023/03/06 01:58:00;;;;;;;9.60;2.20;;;;;;;-145.18;100.00;60484.78;5046021;28;20039;-83
2023/03/06 02:00:27;;;;;;;10.17;2.90;;;;;;;-145.18;100.00;60484.78;5033356;28;20017;-83
2023/03/06 02:02:54;;;;;;;8.40;2.20;;;;;;;-145.18;100.00;60484.78;5047244;28;20488;-84
2023/03/06 02:05:20;;;;;;;6.40;2.40;;;;;;;-145.18;100.00;60484.78;5023968;28;20512;-83
2023/03/06 02:07:47;;;;;;;6.73;2.13;;;;;;;-145.18;100.00;60484.78;5045233;28;20045;-83
2023/03/06 02:10:14;;;;;;;7.87;2.27;;;;;;;-145.18;100.00;60484.78;5044378;28;20106;-83
2023/03/06 02:12:42;;;;;;;8.33;2.10;;;;;;;-145.18;100.00;60484.78;5047735;28;20031;-83
2023/03/06 02:15:09;;;;;;;6.87;2.43;;;;;;;-145.18;100.00;60484.78;5048777;28;20439;-83
2023/03/06 02:17:35;;;;;;;6.23;1.77;;;;;;;-145.18;100.00;60484.78;5044221;28;20838;-83
2023/03/06 02:20:19;;;;;;;10.07;2.40;;;;;;;-145.18;100.00;60484.78;5051583;28;20029;-83
2023/03/06 02:22:53;;;;;;;8.13;2.37;;;;;;;-145.18;100.00;60484.78;5051023;28;20472;-83
2023/03/06 02:25:39;;;;;;;7.67;2.10;;;;;;;-145.18;100.00;60484.78;5048656;28;20067;-83
2023/03/06 02:28:07;;;;;;;8.43;2.13;;;;;;;-145.18;100.00;60484.78;5048491;28;20102;-83
2023/03/06 02:30:33;;;;;;;9.40;2.10;;;;;;;-145.18;100.00;60484.78;5044465;28;20033;-83
2023/03/06 02:32:59;;;;;;;10.53;2.47;;;;;;;-145.18;100.00;60484.78;5048380;28;20032;-83
2023/03/06 02:35:30;;;;;;;10.23;2.50;;;;;;;-145.18;100.00;60484.78;5050240;28;20024;-83
2023/03/06 02:37:57;;;;;;;10.55;2.60;;;;;;;-145.18;100.00;60484.78;5043052;28;20538;-83
2023/03/06 02:40:24;;;;;;;8.33;2.33;;;;;;;-145.18;100.00;60484.78;5052215;28;20029;-83
2023/03/06 02:42:55;;;;;;;9.50;2.37;;;;;;;-145.18;100.00;60484.78;5048034;28;20029;-83
2023/03/06 02:45:30;;;;;;;10.60;2.67;;;;;;;-145.18;100.00;60484.78;5053900;28;20017;-83
2023/03/06 02:47:56;;;;;;;8.90;2.57;;;;;;;-145.18;100.00;60484.78;5072026;28;20754;-83
2023/03/06 02:50:21;;;;;;;6.20;2.40;;;;;;;-145.18;100.00;60484.78;5073072;28;20005;-83
2023/03/06 02:52:46;;;;;;;9.10;2.53;;;;;;;-145.18;100.00;60484.78;5063114;28;20027;-83
2023/03/06 02:55:12;;;;;;;7.37;2.53;;;;;;;-145.18;100.00;60484.78;5074790;28;20040;-83
2023/03/06 02:57:38;;;;;;;9.43;2.77;;;;;;;-145.18;100.00;60484.78;5079355;28;20067;-83
2023/03/06 03:00:04;;;;;;;10.90;2.87;;;;;;;-145.18;100.00;60484.78;5077970;28;20073;-83
2023/03/06 03:02:29;;;;;;;9.07;2.80;;;;;;;-145.18;100.00;60484.78;5072991;28;20021;-83
2023/03/06 03:04:54;;;;;;;7.13;2.83;;;;;;;-145.18;100.00;60484.78;5073716;28;20037;-83
2023/03/06 03:07:20;;;;;;;7.90;2.87;;;;;;;-145.18;100.00;60484.78;5079420;28;20005;-84
2023/03/06 03:09:45;;;;;;;9.47;3.40;;;;;;;-145.18;100.00;60484.78;5079126;28;20005;-83
2023/03/06 03:12:11;;;;;;;11.03;3.43;;;;;;;-145.18;100.00;60484.78;5078380;28;20012;-83
2023/03/06 03:14:36;;;;;;;7.83;2.80;;;;;;;-145.18;100.00;60484.78;5064946;28;20025;-83
2023/03/06 03:17:02;;;;;;;9.00;3.10;;;;;;;-145.18;100.00;60484.78;5053387;28;20013;-83
2023/03/06 03:19:27;;;;;;;7.83;2.73;;;;;;;-145.18;100.00;60484.78;5068586;28;20025;-83
2023/03/06 03:21:53;;;;;;;9.37;2.83;;;;;;;-145.18;100.00;60484.78;5053728;28;20025;-83
2023/03/06 03:24:18;;;;;;;6.90;2.97;;;;;;;-145.18;100.00;60484.78;5047361;28;20488;-83
2023/03/06 03:26:43;;;;;;;11.23;2.93;;;;;;;-145.18;100.00;60484.78;5054970;28;20070;-83
2023/03/06 03:29:09;;;;;;;8.97;3.03;;;;;;;-145.18;100.00;60484.78;5040577;28;20021;-83
2023/03/06 03:31:35;;;;;;;9.67;2.90;;;;;;;-145.18;100.00;60484.78;5050520;28;20033;-83
2023/03/06 03:34:01;;;;;;;11.20;3.07;;;;;;;-145.18;100.00;60484.78;5040625;28;20064;-83
2023/03/06 03:36:26;;;;;;;8.23;2.83;;;;;;;-145.18;100.00;60484.78;5049482;28;20037;-83
2023/03/06 03:38:52;;;;;;;8.57;2.70;;;;;;;-145.18;100.00;60484.78;5022444;28;20025;-83
2023/03/06 03:41:17;;;;;;;9.80;2.90;;;;;;;-145.18;100.00;60484.78;5043022;28;20047;-83
2023/03/06 03:43:43;;;;;;;6.90;3.03;;;;;;;-145.18;100.00;60484.78;5055246;28;20033;-84
2023/03/06 03:46:08;;;;;;;8.27;3.30;;;;;;;-145.18;100.00;60484.78;5045472;28;20017;-81
2023/03/06 03:48:34;;;;;;;14.17;3.20;;;;;;;-145.18;100.00;60484.78;5053450;28;20021;-82
2023/03/06 03:51:08;;;;;;;10.20;3.13;;;;;;;-145.18;100.00;60484.78;5056704;28;20023;-83
2023/03/06 03:53:33;;;;;;;8.47;3.27;;;;;;;-145.18;100.00;60484.78;5061547;28;20032;-82
2023/03/06 03:55:59;;;;;;;7.37;3.17;;;;;;;-145.18;100.00;60484.78;5052675;28;20028;-87
2023/03/06 03:58:24;;;;;;;9.90;2.90;;;;;;;-145.18;100.00;60484.78;5054486;28;20567;-88
2023/03/06 04:00:49;;;;;;;7.20;3.20;;;;;;;-145.18;100.00;60484.78;5056276;28;20381;-88
2023/03/06 04:03:15;;;;;;;9.13;3.30;;;;;;;-145.18;100.00;60484.78;5054891;28;20051;-88
2023/03/06 04:05:45;;;;;;;11.40;3.80;;;;;;;-145.18;100.00;60484.78;5035102;28;20117;-88
2023/03/06 04:08:10;;;;;;;15.03;3.90;;;;;;;-145.18;100.00;60484.78;5061726;28;20100;-89
2023/03/06 04:10:38;;;;;;;15.67;4.07;;;;;;;-145.18;100.00;60484.78;5050745;28;20060;-89
2023/03/06 04:13:04;;;;;;;11.33;4.10;;;;;;;-145.18;100.00;60484.78;5050342;28;20036;-89
2023/03/06 04:15:30;;;;;;;12.67;4.17;;;;;;;-145.18;100.00;60484.78;5047969;28;20029;-89
2023/03/06 04:17:56;;;;;;;10.90;4.10;;;;;;;-145.18;100.00;60484.78;5058042;28;20384;-89
2023/03/06 04:20:21;;;;;;;12.53;4.20;;;;;;;-145.18;100.00;60484.78;5052653;28;20028;-89
2023/03/06 04:22:46;;;;;;;12.93;3.90;;;;;;;-145.18;100.00;60484.78;5055649;28;20029;-89
2023/03/06 04:25:12;;;;;;;8.73;3.97;;;;;;;-145.18;100.00;60484.78;5056637;28;20028;-88
2023/03/06 04:27:37;;;;;;;10.83;4.40;;;;;;;-145.18;100.00;60484.78;5052311;28;20053;-89
2023/03/06 04:30:05;;;;;;;12.93;4.50;;;;;;;-145.18;100.00;60484.78;5046466;28;20032;-88
2023/03/06 04:32:31;;;;;;;12.30;5.03;;;;;;;-145.18;100.00;60484.78;5056977;28;20180;-89
2023/03/06 04:34:56;;;;;;;11.73;4.70;;;;;;;-145.18;100.00;60484.78;5054965;28;20135;-89
2023/03/06 04:37:24;;;;;;;21.77;6.00;;;;;;;-145.18;100.00;60484.78;5051098;28;20048;-89
2023/03/06 04:39:49;;;;;;;14.77;5.63;;;;;;;-145.18;100.00;60484.78;5047582;28;20052;-89
2023/03/06 04:42:15;;;;;;;15.30;6.37;;;;;;;-145.18;100.00;60484.78;5055337;28;20079;-89
2023/03/06 04:44:40;;;;;;;20.33;7.20;;;;;;;-145.18;100.00;60484.78;5034978;28;20029;-89
2023/03/06 04:47:06;;;;;;;29.20;9.63;;;;;;;-145.18;100.00;60484.78;5045403;28;20477;-89
2023/03/06 04:49:32;;;;;;;14.93;7.17;;;;;;;-145.18;100.00;60484.78;5046798;28;20377;-89
2023/03/06 04:51:57;;;;;;;18.57;6.90;;;;;;;-145.18;100.00;60484.78;5035076;28;20094;-89
2023/03/06 04:54:23;;;;;;;14.33;6.60;;;;;;;-145.18;100.00;60484.78;5053192;28;20041;-88
2023/03/06 04:56:48;;;;;;;17.23;7.03;;;;;;;-145.18;100.00;60484.78;5051284;28;20033;-89
2023/03/06 04:59:13;;;;;;;18.10;6.87;;;;;;;-145.18;100.00;60484.78;5046707;28;20075;-89
2023/03/06 05:01:39;;;;;;;17.90;7.37;;;;;;;-145.18;100.00;60484.78;5049217;28;20448;-89
2023/03/06 05:04:04;;;;;;;13.40;5.47;;;;;;;-145.18;100.00;60484.78;5045833;28;20420;-89
2023/03/06 05:06:30;;;;;;;16.17;6.70;;;;;;;-145.18;100.00;60484.78;5051404;28;20123;-89
2023/03/06 05:08:56;;;;;;;13.83;5.47;;;;;;;-145.18;100.00;60484.78;5045324;28;20060;-89
2023/03/06 05:11:21;;;;;;;21.20;8.20;;;;;;;-145.18;100.00;60484.78;5048855;28;20037;-88
2023/03/06 05:13:47;;;;;;;15.20;6.50;;;;;;;-145.18;100.00;60484.78;5036072;28;20057;-89
2023/03/06 05:16:12;;;;;;;19.37;7.77;;;;;;;-145.18;100.00;60484.78;5047025;28;20049;-89
2023/03/06 05:18:37;;;;;;;21.57;6.93;;;;;;;-145.18;100.00;60484.78;5047211;28;20032;-89
2023/03/06 05:21:04;;;;;;;20.97;7.73;;;;;;;-145.18;100.00;60484.78;5045079;28;20442;-89
2023/03/06 05:23:31;;;;;;;18.47;7.33;;;;;;;-145.18;100.00;60484.78;5044710;28;20082;-89
2023/03/06 05:25:57;;;;;;;16.90;6.10;;;;;;;-145.18;100.00;60484.78;5044633;28;20029;-89
2023/03/06 05:28:22;;;;;;;18.83;6.20;;;;;;;-145.18;100.00;60484.78;5051539;28;20039;-89
2023/03/06 05:30:48;;;;;;;17.50;6.07;;;;;;;-145.18;100.00;60484.78;5048432;28;20041;-89
2023/03/06 05:33:14;;;;;;;19.73;6.07;;;;;;;-145.18;100.00;60484.78;5044189;28;20032;-89
2023/03/06 05:35:43;;;;;;;17.43;6.53;;;;;;;-145.18;100.00;60484.78;5050851;28;20029;-89
2023/03/06 05:38:09;;;;;;;16.47;5.70;;;;;;;-145.18;100.00;60484.78;5044972;28;20029;-89
2023/03/06 05:40:34;;;;;;;18.27;6.67;;;;;;;-145.18;100.00;60484.78;5051835;28;20408;-89
2023/03/06 05:43:00;;;;;;;18.50;5.80;;;;;;;-145.18;100.00;60484.78;5051850;28;20028;-89
2023/03/06 05:45:25;;;;;;;14.40;5.47;;;;;;;-145.18;100.00;60484.78;5047214;28;20064;-89
2023/03/06 05:47:50;;;;;;;23.83;6.70;;;;;;;-145.18;100.00;60484.78;5029356;28;20025;-90
2023/03/06 05:50:16;;;;;;;17.27;5.43;;;;;;;-145.18;100.00;60484.78;5034158;28;20373;-89
2023/03/06 05:52:41;;;;;;;15.77;5.27;;;;;;;-145.18;100.00;60484.78;5043875;28;20414;-89
2023/03/06 05:55:09;;;;;;;18.10;5.90;;;;;;;-145.18;100.00;60484.78;5029016;28;20128;-89
2023/03/06 05:57:34;;;;;;;16.93;5.67;;;;;;;-145.18;100.00;60484.78;5050017;28;20060;-89
2023/03/06 06:00:00;;;;;;;17.80;5.67;;;;;;;-145.18;100.00;60484.78;5032982;28;20479;-89
2023/03/06 06:02:25;;;;;;;20.37;5.53;;;;;;;-145.18;100.00;60484.78;5051508;28;20048;-89
2023/03/06 06:04:50;;;;;;;18.87;5.80;;;;;;;-145.18;100.00;60484.78;5051425;28;20531;-89
2023/03/06 06:07:16;;;;;;;15.80;4.90;;;;;;;-145.18;100.00;60484.78;5049577;28;20029;-89
2023/03/06 06:09:44;;;;;;;17.83;5.70;;;;;;;-145.18;100.00;60484.78;5026324;28;20029;-89
2023/03/06 06:12:10;;;;;;;17.10;5.17;;;;;;;-145.18;100.00;60484.78;5018628;28;20053;-89
2023/03/06 06:14:35;;;;;;;21.87;5.57;;;;;;;-145.18;100.00;60484.78;5046792;28;20033;-89
2023/03/06 06:17:01;;;;;;;19.07;5.93;;;;;;;-145.18;100.00;60484.78;5048497;28;20064;-89
2023/03/06 06:19:30;;;;;;;18.27;5.80;;;;;;;-145.18;100.00;60484.78;5023154;28;20037;-89
2023/03/06 06:21:56;;;;;;;28.33;7.63;;;;;;;-145.18;100.00;60484.78;5051093;28;20029;-89
2023/03/06 06:24:25;;;;;;;25.33;6.10;;;;;;;-145.18;100.00;60484.78;5051663;28;20038;-88
2023/03/06 06:26:53;;;;;;;26.90;6.00;;;;;;;-145.18;100.00;60484.78;5046454;28;20536;-89
2023/03/06 06:29:19;;;;;;;21.17;5.90;;;;;;;-145.18;100.00;60484.78;5042945;28;20029;-89
2023/03/06 06:31:45;;;;;;;26.07;7.30;;;;;;;-145.18;100.00;60484.78;5047555;28;20037;-88
2023/03/06 06:34:11;;;;;;;21.53;6.47;;;;;;;-145.18;100.00;60484.78;5052891;28;20033;-89
2023/03/06 06:36:37;;;;;;;32.67;7.77;;;;;;;-145.18;100.00;60484.78;5052888;28;20272;-89
2023/03/06 06:39:04;;;;;;;28.43;7.33;;;;;;;-145.18;100.00;60484.78;5052890;28;20461;-89
2023/03/06 06:41:29;;;;;;;31.67;9.37;;;;;;;-145.18;100.00;60484.78;5052862;28;20029;-89
2023/03/06 06:43:55;;;;;;;31.07;9.17;;;;;;;-145.18;100.00;60484.78;5053272;28;20033;-89
2023/03/06 06:46:21;;;;;;;32.93;9.87;;;;;;;-145.18;100.00;60484.78;5045687;28;20029;-89
2023/03/06 06:48:48;;;;;;;34.97;9.90;;;;;;;-145.18;100.00;60484.78;5036206;28;20041;-88
2023/03/06 06:51:15;;;;;;;36.00;10.30;;;;;;;-145.18;100.00;60484.78;5053088;28;20041;-88
2023/03/06 06:53:40;;;;;;;36.10;10.37;;;;;;;-145.18;100.00;60484.78;5052969;28;20028;-89
2023/03/06 06:56:05;;;;;;;37.67;10.90;;;;;;;-145.18;100.00;60484.78;5033601;28;20087;-89
2023/03/06 06:58:31;;;;;;;40.83;11.03;;;;;;;-145.18;100.00;60484.78;5051596;28;20124;-88
2023/03/06 07:00:56;;;;;;;35.37;11.17;;;;;;;-145.18;100.00;60484.78;5049078;28;20044;-89
2023/03/06 07:03:22;;;;;;;38.10;11.40;;;;;;;-145.18;100.00;60484.78;5052776;28;20082;-88
2023/03/06 07:05:54;;;;;;;34.87;10.03;;;;;;;-145.18;100.00;60484.78;5050902;28;20100;-89
2023/03/06 07:08:20;;;;;;;37.13;10.20;;;;;;;-145.18;100.00;60484.78;5051188;28;20082;-88
2023/03/06 07:10:45;;;;;;;31.93;9.97;;;;;;;-145.18;100.00;60484.78;5052648;28;20041;-89
2023/03/06 07:13:10;;;;;;;37.13;10.13;;;;;;;-145.18;100.00;60484.78;5053091;28;20025;-89
2023/03/06 07:15:36;;;;;;;31.27;9.20;;;;;;;-145.18;100.00;60484.78;5051654;28;20025;-89
2023/03/06 07:18:01;;;;;;;31.50;10.13;;;;;;;-145.18;100.00;60484.78;5050766;28;20033;-88
2023/03/06 07:20:27;;;;;;;32.93;9.57;;;;;;;-145.18;100.00;60484.78;5051470;28;20158;-88
2023/03/06 07:22:52;;;;;;;32.37;9.67;;;;;;;-145.18;100.00;60484.78;5052602;28;20067;-89
2023/03/06 07:25:18;;;;;;;33.57;9.47;;;;;;;-145.18;100.00;60484.78;5052583;28;20122;-89
2023/03/06 07:27:43;;;;;;;31.87;9.83;;;;;;;-145.18;100.00;60484.78;5051537;28;20029;-89
2023/03/06 07:30:11;;;;;;;31.87;10.00;;;;;;;-145.18;100.00;60484.78;5054149;28;20102;-89
2023/03/06 07:32:37;;;;;;;28.70;9.90;;;;;;;-145.18;100.00;60484.78;5055176;28;20047;-88
2023/03/06 07:35:02;;;;;;;27.17;9.10;;;;;;;-145.18;100.00;60484.78;5052714;28;20025;-88
2023/03/06 07:37:28;;;;;;;30.43;9.03;;;;;;;-145.18;100.00;60484.78;5049651;28;20063;-88
2023/03/06 07:39:53;;;;;;;32.37;10.90;;;;;;;-145.18;100.00;60484.78;5054043;28;20028;-88
2023/03/06 07:42:19;;;;;;;39.80;11.00;;;;;;;-145.18;100.00;60484.78;5061512;28;20028;-88
2023/03/06 07:44:44;;;;;;;41.03;11.87;;;;;;;-145.18;100.00;60484.78;5046680;28;20373;-88
2023/03/06 07:47:12;;;;;;;47.83;14.07;;;;;;;-145.18;100.00;60484.78;5051887;28;20023;-88
2023/03/06 07:49:37;;;;;;;43.83;12.20;;;;;;;-145.18;100.00;60484.78;5049280;28;20110;-88
2023/03/06 07:52:03;;;;;;;56.73;14.90;;;;;;;-145.18;100.00;60484.78;5053986;28;20029;-88
2023/03/06 07:54:33;;;;;;;38.07;11.53;;;;;;;-145.18;100.00;60484.78;5057871;28;20036;-89
2023/03/06 07:56:59;;;;;;;37.27;11.67;;;;;;;-145.18;100.00;60484.78;5055528;28;20500;-88
2023/03/06 07:59:25;;;;;;;34.03;11.63;;;;;;;-145.18;100.00;60484.78;5055366;28;20029;-89
2023/03/06 08:01:52;;;;;;;29.77;10.77;;;;;;;-145.18;100.00;60484.78;5049243;28;20381;-89
2023/03/06 08:04:17;;;;;;;28.23;10.73;;;;;;;-145.18;100.00;60484.78;5036419;28;20495;-89
2023/03/06 08:06:43;;;;;;;25.97;9.93;;;;;;;-145.18;100.00;60484.78;5056033;28;20029;-88
2023/03/06 08:09:08;;;;;;;26.30;10.83;;;;;;;-145.18;100.00;60484.78;5055126;28;20421;-88
2023/03/06 08:11:33;;;;;;;27.33;11.10;;;;;;;-145.18;100.00;60484.78;5037892;28;20024;-89
2023/03/06 08:13:59;;;;;;;23.83;9.70;;;;;;;-145.18;100.00;60484.78;5055318;28;20075;-89
2023/03/06 08:16:27;;;;;;;22.70;9.00;;;;;;;-145.18;100.00;60484.78;5054722;28;20151;-90
2023/03/06 08:18:53;;;;;;;22.13;9.20;;;;;;;-145.18;100.00;60484.78;5053627;28;20040;-89
2023/03/06 08:21:22;;;;;;;19.70;8.33;;;;;;;-145.18;100.00;60484.78;5055221;28;20044;-89
2023/03/06 08:23:48;;;;;;;21.83;8.93;;;;;;;-145.18;100.00;60484.78;5055496;28;20029;-89
2023/03/06 08:26:17;;;;;;;21.27;8.17;;;;;;;-145.18;100.00;60484.78;5044919;28;20041;-89
2023/03/06 08:28:43;;;;;;;19.87;8.63;;;;;;;-145.18;100.00;60484.78;5035728;28;20338;-89
2023/03/06 08:31:11;;;;;;;17.73;7.30;;;;;;;-145.18;100.00;60484.78;5039069;28;20020;-89
2023/03/06 08:33:38;;;;;;;18.27;7.70;;;;;;;-145.18;100.00;60484.78;5054639;28;20060;-90
2023/03/06 08:36:03;;;;;;;20.10;7.43;;;;;;;-145.18;100.00;60484.78;5054718;28;20475;-90
2023/03/06 08:38:29;;;;;;;18.83;7.27;;;;;;;-145.18;100.00;60484.78;5054527;28;20108;-89
2023/03/06 08:40:54;;;;;;;14.87;6.73;;;;;;;-145.18;100.00;60484.78;5053650;28;20033;-90
2023/03/06 08:43:20;;;;;;;14.10;6.40;;;;;;;-145.18;100.00;60484.78;5054291;28;20489;-89
2023/03/06 08:45:51;;;;;;;13.67;6.33;;;;;;;-145.18;100.00;60484.78;5053890;28;20044;-90
2023/03/06 08:48:16;;;;;;;12.82;5.82;;;;;;;-145.18;100.00;60484.78;5042410;28;20492;-89
2023/03/06 08:50:42;;;;;;;13.83;6.27;;;;;;;-145.18;100.00;60484.78;5054281;28;20032;-89
2023/03/06 08:53:07;;;;;;;11.13;5.00;;;;;;;-145.18;100.00;60484.78;5054545;28;20081;-90
2023/03/06 08:55:35;;;;;;;12.17;5.00;;;;;;;-145.18;100.00;60484.78;5054117;28;20028;-89
2023/03/06 08:58:01;;;;;;;9.43;4.03;;;;;;;-145.18;100.00;60484.78;5054499;28;20028;-90
2023/03/06 09:00:26;;;;;;;10.68;5.38;;;;;;;-145.18;100.00;60484.78;5054740;28;20029;-89
2023/03/06 09:02:52;;;;;;;10.63;4.78;;;;;;;-145.18;100.00;60484.78;5054096;28;20032;-89
2023/03/06 09:05:18;;;;;;;11.65;5.28;;;;;;;-145.18;100.00;60484.78;5052615;28;20078;-89
2023/03/06 09:07:43;;;;;;;10.73;5.40;;;;;;;-145.18;100.00;60484.78;5053797;28;20032;-89
2023/03/06 09:10:13;;;;;;;11.33;5.30;;;;;;;-145.18;100.00;60484.78;5054160;28;20082;-89
2023/03/06 09:12:38;;;;;;;13.63;7.10;;;;;;;-145.18;100.00;60484.78;5053708;28;20055;-89
2023/03/06 09:15:04;;;;;;;14.60;7.47;;;;;;;-145.18;100.00;60484.78;5053574;28;20016;-87
2023/03/06 09:17:30;;;;;;;15.33;7.77;;;;;;;-145.18;100.00;60484.78;5052860;28;20103;-89
2023/03/06 09:19:55;;;;;;;15.97;7.63;;;;;;;-145.18;100.00;60484.78;5036757;28;20028;-89
2023/03/06 09:22:20;;;;;;;14.97;7.27;;;;;;;-145.18;100.00;60484.78;5053461;28;20438;-88
2023/03/06 09:24:46;;;;;;;18.57;9.50;;;;;;;-145.18;100.00;60484.78;5053183;28;20037;-89
2023/03/06 09:27:11;;;;;;;19.57;9.23;;;;;;;-145.18;100.00;60484.78;5052509;28;20033;-89
2023/03/06 09:29:36;;;;;;;18.97;9.90;;;;;;;-145.18;100.00;60484.78;5054377;28;20051;-89
2023/03/06 09:32:02;;;;;;;19.23;9.47;;;;;;;-145.18;100.00;60484.78;5051184;28;20465;-88
2023/03/06 09:34:27;;;;;;;23.47;9.83;;;;;;;-145.18;100.00;60484.78;5053280;28;20039;-89
2023/03/06 09:36:53;;;;;;;21.27;10.50;;;;;;;-145.18;100.00;60484.78;5053685;28;20053;-88
2023/03/06 09:39:18;;;;;;;22.30;10.80;;;;;;;-145.18;100.00;60484.78;5053732;28;20025;-87
2023/03/06 09:41:48;;;;;;;15.17;8.23;;;;;;;-145.18;100.00;60484.78;5053699;28;20029;-89
2023/03/06 09:44:17;;;;;;;18.60;8.50;;;;;;;-145.18;100.00;60484.78;5052913;28;20025;-89
2023/03/06 09:47:19;;;;;;;17.33;8.60;;;;;;;-145.18;100.00;60484.78;5052871;28;20105;-89
2023/03/06 09:50:22;;;;;;;18.13;7.87;;;;;;;-145.18;100.00;60484.78;5053672;28;20536;-88
2023/03/06 09:53:01;;;;;;;13.17;6.83;;;;;;;-145.18;100.00;60484.78;5053569;28;20500;-89
2023/03/06 09:55:32;;;;;;;21.03;8.77;;;;;;;-145.18;100.00;60484.78;5052932;28;20021;-89
2023/03/06 09:58:04;;;;;;;20.27;8.30;;;;;;;-145.18;100.00;60484.78;5053891;28;20036;-89
2023/03/06 10:00:52;;;;;;;17.08;6.95;;;;;;;-145.18;100.00;60484.78;5044910;28;20031;-89
2023/03/06 10:03:43;;;;;;;12.20;6.27;;;;;;;-145.18;100.00;60484.78;5052786;28;20043;-89
2023/03/06 10:06:11;;;;;;;12.20;6.40;;;;;;;-145.18;100.00;60484.78;5053805;28;20035;-90
2023/03/06 10:08:48;;;;;;;11.77;6.13;;;;;;;-145.18;100.00;60484.78;5053610;28;20127;-89
2023/03/06 10:11:21;;;;;;;11.87;6.70;;;;;;;-145.18;100.00;60484.78;5052732;28;20028;-89
2023/03/06 10:13:52;;;;;;;9.63;5.27;;;;;;;-145.18;100.00;60484.78;5053357;28;20029;-89
2023/03/06 10:16:17;;;;;;;11.32;6.18;;;;;;;-145.18;100.00;60484.78;5053459;28;20017;-90
2023/03/06 10:18:43;;;;;;;14.63;5.97;;;;;;;-145.18;100.00;60484.78;5052755;28;20040;-89
2023/03/06 10:21:50;;;;;;;14.80;6.30;;;;;;;-145.18;100.00;60484.78;5052904;28;20020;-89
2023/03/06 10:24:41;;;;;;;13.17;6.80;;;;;;;-145.18;100.00;60484.78;5052480;28;20117;-89
2023/03/06 10:27:25;;;;;;;11.70;6.20;;;;;;;-145.18;100.00;60484.78;5053219;28;20099;-89
2023/03/06 10:29:54;;;;;;;12.17;5.43;;;;;;;-145.18;100.00;60484.78;5052660;28;20496;-89
2023/03/06 10:32:19;;;;;;;11.17;5.50;;;;;;;-145.18;100.00;60484.78;5041463;28;20051;-89
2023/03/06 10:34:45;;;;;;;10.67;4.20;;;;;;;-145.18;100.00;60484.78;5050495;28;20029;-90
2023/03/06 10:37:20;;;;;;;8.53;4.80;;;;;;;-145.18;100.00;60484.78;5052751;28;20086;-89
2023/03/06 10:39:46;;;;;;;16.00;6.17;;;;;;;-145.18;100.00;60484.78;5053570;28;20025;-89
2023/03/06 10:42:11;;;;;;;16.77;5.33;;;;;;;-145.18;100.00;60484.78;5052190;28;20377;-89
2023/03/06 10:44:36;;;;;;;10.53;4.83;;;;;;;-145.18;100.00;60484.78;5052976;28;20124;-88
2023/03/06 10:47:34;;;;;;;7.53;3.83;;;;;;;-145.18;100.00;60484.78;5023525;28;20049;-89
2023/03/06 10:50:01;;;;;;;12.63;4.83;;;;;;;-145.18;100.00;60484.78;5033190;28;20104;-90
2023/03/06 10:52:32;;;;;;;7.50;3.90;;;;;;;-145.18;100.00;60484.78;5014665;28;20051;-89
2023/03/06 10:55:24;;;;;;;7.90;4.30;;;;;;;-145.18;100.00;60484.78;5033707;28;20746;-90
2023/03/06 10:57:50;;;;;;;;;;;;;;;-145.18;100.00;60484.78;5033486;28;20101;-90
2023/03/06 11:00:37;;;;;;;8.57;3.43;;;;;;;-145.18;100.00;60484.78;5032974;28;20068;-90
2023/03/06 11:03:22;;;;;;;12.10;2.70;;;;;;;-145.18;100.00;60484.78;5052092;28;20037;-89
2023/03/06 11:06:01;;;;;;;3.73;1.10;;;;;;;-145.18;100.00;60484.78;5057268;28;20039;-89